Karaftit, Russia
Current Conditions -  °F | °C
As of 2:30 PM on Wednesday 22 Oct 2014 (Local Time) from UIAA Reporting Station
Overcast Overcast  
Wind Chill: 30°   Ceiling: 10000
Heat Index: 34°   Visibility: 6mi
Dew Point: 18°   Wind: 4mph
Humidity: 52%   Direction: NA
Pressure: 29.74"   Gusts: NA
Location:  54.2°N, 111.91°E
Report Text: UIAA 220630Z VRB02MPS 9999 SCT050 OVC100 01/M08 Q1007 NOSIG RMKQFE697 29CLRD70
Loading
Personal Weather Stations






























Interactive Weather Map
Tropical Storm Tracking
New forecast layout! Learn more

10-Day Weather Forecast

Advertisements
Track Severe Weather on mobile